Terminal Aerodrome Forecast
Issued by NWS

Home | Current Version | Previous Version | Text Only | Print | Product List | Glossary On
Versions: 1 2 3 4 5 6 7 8 9 10 11 12
000
FTUS46 KPDT 271100
TAFRDM
TAF
KRDM 271124Z 2712/2812 13004KT P6SM BKN150
     FM271800 17006KT P6SM SCT080 OVC120
     FM272100 19008KT P6SM VCSH BKN040 OVC060
     FM280000 22008KT P6SM -SHRA BKN030 OVC050
     FM280600 28011KT P6SM BKN030=

USA.gov is the U.S. government's official web portal to all federal, state and local government web resources and services.